Merville, Canada
Current Conditions -  °F | °C
As of 4:00 AM on Saturday 01 Nov 2014 (Local Time) from CYQQ Reporting Station
Broken Clouds Broken Clouds  
Wind Chill: 46°   Ceiling: 1100
Heat Index: 46°   Visibility: 20mi
Dew Point: 45°   Wind: 2mph
Humidity: 93%   Direction: 290°WNW
Pressure: 29.88"   Gusts: NA
Location:  49.78°N, 125.05°W
Report Text: CYQQ 011100Z 29002KT 20SM BKN011 BKN022 08/07 A2988 RMK SF6SC2 SLP120
Loading
Personal Weather Stations






























Interactive Weather Map
Tropical Storm Tracking
New forecast layout! Learn more

10-Day Weather Forecast

Advertisements
Track Severe Weather on mobile